Time;durP1;ratioP1;P1;durP2;ratioP2;P2;SDS_P1;SDS_P2;PMS_P1;PMS_P2;Temp;Humidity;BMP_temperature;BMP_pressure;BME280_temperature;BME280_humidity;BME280_pressure;Samples;Min_cycle;Max_cycle;Signal;HPM_P1;HPM_P2
2023/03/14 00:03:09;;;;;;;0.08;0.08;;;;;;;11.26;100.00;98386.25;10546690;28;20482;-78
2023/03/14 00:08:11;;;;;;;0.00;0.00;;;;;;;11.28;100.00;98375.94;10531267;28;20051;-79
2023/03/14 00:13:12;;;;;;;0.10;0.10;;;;;;;11.43;100.00;98355.03;10553828;28;20564;-79
2023/03/14 00:18:14;;;;;;;0.00;0.00;;;;;;;11.33;100.00;98357.81;10554555;28;20099;-79
2023/03/14 00:23:15;;;;;;;0.90;0.52;;;;;;;11.35;100.00;98356.91;10538174;28;20075;-79
2023/03/14 00:28:17;;;;;;;0.00;0.00;;;;;;;11.38;100.00;98343.97;10531852;28;20062;-78
2023/03/14 00:33:22;;;;;;;0.32;0.32;;;;;;;11.30;100.00;98345.81;10523561;28;20453;-79
2023/03/14 00:38:26;;;;;;;4.57;0.68;;;;;;;11.49;100.00;98353.22;10537763;28;20104;-79
2023/03/14 00:43:28;;;;;;;0.10;0.10;;;;;;;12.14;100.00;98377.78;10542857;28;20040;-80
2023/03/14 00:48:29;;;;;;;0.00;0.00;;;;;;;11.96;100.00;98371.22;10530520;28;20048;-79
2023/03/14 00:53:35;;;;;;;0.00;0.00;;;;;;;11.60;100.00;98253.28;10539829;28;20146;-79
2023/03/14 00:58:37;;;;;;;0.00;0.00;;;;;;;11.57;100.00;98290.31;10524096;28;20083;-79
2023/03/14 01:03:39;;;;;;;0.22;0.03;;;;;;;11.30;100.00;98296.84;10526877;28;20149;-79
2023/03/14 01:08:40;;;;;;;0.13;0.13;;;;;;;11.56;100.00;98305.81;10504654;28;20044;-79
2023/03/14 01:13:42;;;;;;;0.03;0.03;;;;;;;11.73;100.00;98321.78;10546177;28;20054;-79
2023/03/14 01:18:45;;;;;;;0.52;0.32;;;;;;;11.74;100.00;98328.66;10537722;28;20093;-80
2023/03/14 01:23:48;;;;;;;0.00;0.00;;;;;;;11.11;100.00;98343.59;10531438;28;20090;-80
2023/03/14 01:28:51;;;;;;;1.45;0.75;;;;;;;11.11;100.00;98340.13;10529911;28;20092;-80
2023/03/14 01:33:54;;;;;;;1.08;0.40;;;;;;;11.17;100.00;98362.38;10528587;28;20048;-79
2023/03/14 01:38:56;;;;;;;0.08;0.08;;;;;;;11.29;100.00;98387.09;10518187;28;20036;-79
2023/03/14 01:43:58;;;;;;;0.08;0.00;;;;;;;11.20;100.00;98413.88;10536136;28;20122;-79
2023/03/14 01:49:04;;;;;;;0.00;0.00;;;;;;;11.18;100.00;98426.78;10561709;27;20044;-79
2023/03/14 01:54:14;;;;;;;0.00;0.00;;;;;;;11.09;100.00;98442.41;10520758;28;20040;-79
2023/03/14 01:59:18;;;;;;;13.70;0.25;;;;;;;10.94;100.00;98453.78;10520636;28;20098;-80
2023/03/14 02:04:20;;;;;;;0.70;0.70;;;;;;;11.07;100.00;98465.59;10526521;28;20051;-79
2023/03/14 02:09:22;;;;;;;0.00;0.00;;;;;;;10.85;100.00;98489.97;10538357;28;20135;-80
2023/03/14 02:14:30;;;;;;;0.00;0.00;;;;;;;10.78;100.00;98502.09;10543223;28;20127;-79
2023/03/14 02:20:05;;;;;;;0.00;0.00;;;;;;;10.78;100.00;98505.53;10517810;28;20055;-79
2023/03/14 02:25:16;;;;;;;0.00;0.00;;;;;;;10.92;100.00;98517.34;10505396;28;20455;-79
2023/03/14 02:30:22;;;;;;;0.00;0.00;;;;;;;10.91;100.00;98523.38;10546912;28;20581;-78
2023/03/14 02:35:29;;;;;;;0.00;0.00;;;;;;;10.95;100.00;98532.78;10515264;28;20097;-79
2023/03/14 02:40:31;;;;;;;4.38;1.30;;;;;;;10.86;100.00;98517.44;10515514;28;20044;-79
2023/03/14 02:45:40;;;;;;;0.20;0.20;;;;;;;10.77;100.00;98521.00;10542048;28;20495;-79
2023/03/14 02:50:45;;;;;;;0.00;0.00;;;;;;;10.46;100.00;98483.59;10522967;28;20131;-79
2023/03/14 02:55:48;;;;;;;0.10;0.10;;;;;;;10.51;100.00;98472.41;10515184;28;20056;-80
2023/03/14 03:00:53;;;;;;;0.28;0.20;;;;;;;10.33;100.00;98435.69;10564084;27;20044;-81
2023/03/14 03:05:57;;;;;;;0.05;0.05;;;;;;;10.12;100.00;98417.09;10519536;28;20050;-80
2023/03/14 03:10:59;;;;;;;1.25;0.35;;;;;;;10.04;100.00;98393.19;10532360;28;20040;-81
2023/03/14 03:16:04;;;;;;;0.10;0.10;;;;;;;10.00;100.00;98371.78;10537945;28;20036;-78
2023/03/14 03:21:09;;;;;;;0.00;0.00;;;;;;;9.68;100.00;98354.19;10525000;28;20051;-81
2023/03/14 03:26:11;;;;;;;1.58;0.60;;;;;;;9.53;100.00;98304.66;10548187;28;20039;-80
2023/03/14 03:31:13;;;;;;;1.55;0.70;;;;;;;9.57;100.00;98284.06;10513523;28;20562;-79
2023/03/14 03:36:15;;;;;;;0.00;0.00;;;;;;;9.65;100.00;98274.50;10560392;28;20094;-79
2023/03/14 03:41:16;;;;;;;0.65;0.47;;;;;;;9.57;100.00;98260.94;10507023;28;20050;-79
2023/03/14 03:46:18;;;;;;;0.03;0.03;;;;;;;9.56;100.00;98248.94;10523950;28;20040;-79
2023/03/14 03:51:20;;;;;;;0.00;0.00;;;;;;;9.43;100.00;98243.94;10506160;28;20062;-80
2023/03/14 03:56:22;;;;;;;0.00;0.00;;;;;;;9.44;100.00;98235.34;10552547;28;20052;-79
2023/03/14 04:01:24;;;;;;;0.52;0.30;;;;;;;9.41;100.00;98227.72;10533347;28;20110;-81
2023/03/14 04:06:30;;;;;;;0.17;0.17;;;;;;;9.56;100.00;98236.09;10530596;28;20051;-81
2023/03/14 04:11:34;;;;;;;0.00;0.00;;;;;;;9.56;100.00;98241.22;10532437;28;20440;-81
2023/03/14 04:16:40;;;;;;;0.00;0.00;;;;;;;9.73;100.00;98241.84;10515810;28;20106;-79
2023/03/14 04:21:48;;;;;;;0.10;0.03;;;;;;;9.80;100.00;98238.31;10531011;28;20044;-80
2023/03/14 04:26:52;;;;;;;0.95;0.45;;;;;;;9.86;100.00;98249.41;10527379;28;20052;-80
2023/03/14 04:31:54;;;;;;;0.00;0.00;;;;;;;9.80;100.00;98251.16;10510491;28;20055;-79
2023/03/14 04:36:56;;;;;;;0.03;0.03;;;;;;;9.72;100.00;98244.44;10521733;28;20044;-80
2023/03/14 04:42:08;;;;;;;0.00;0.00;;;;;;;9.87;100.00;98261.38;10511589;28;20039;-80
2023/03/14 04:47:12;;;;;;;0.00;0.00;;;;;;;9.72;100.00;98258.13;10532997;28;20043;-80
2023/03/14 04:52:15;;;;;;;2.65;0.40;;;;;;;9.84;100.00;98258.00;10524697;28;20047;-80
2023/03/14 04:57:17;;;;;;;0.00;0.00;;;;;;;9.92;100.00;98249.31;10505823;28;20155;-80
2023/03/14 05:02:19;;;;;;;17.52;0.35;;;;;;;9.80;100.00;98252.91;10491540;28;20067;-80
2023/03/14 05:07:53;;;;;;;0.00;0.00;;;;;;;9.88;100.00;98265.66;10523274;28;20074;-80
2023/03/14 05:13:13;;;;;;;0.00;0.00;;;;;;;9.87;100.00;98269.94;10523425;28;20503;-81
2023/03/14 05:18:29;;;;;;;0.55;0.45;;;;;;;9.89;100.00;98275.06;10540280;28;20516;-80
2023/03/14 05:23:51;;;;;;;0.00;0.00;;;;;;;9.87;100.00;98277.66;10505254;28;20052;-81
2023/03/14 05:29:05;;;;;;;0.10;0.00;;;;;;;9.86;100.00;98277.69;10519890;28;20168;-80
2023/03/14 05:34:16;;;;;;;0.00;0.00;;;;;;;9.68;100.00;98274.47;10519793;28;20056;-79
2023/03/14 05:39:36;;;;;;;1.35;0.55;;;;;;;9.29;100.00;98233.84;10536668;28;20051;-81
2023/03/14 05:44:51;;;;;;;0.40;0.17;;;;;;;9.21;100.00;98185.09;10524669;28;20125;-80
2023/03/14 05:50:20;;;;;;;23.45;0.38;;;;;;;9.00;100.00;98162.25;10534433;28;20055;-81
2023/03/14 05:55:40;;;;;;;0.10;0.10;;;;;;;9.26;100.00;98149.09;10534329;28;20044;-80
2023/03/14 06:00:52;;;;;;;0.00;0.00;;;;;;;9.07;100.00;98145.91;10538420;28;20047;-81
2023/03/14 06:06:08;;;;;;;0.00;0.00;;;;;;;9.07;100.00;98140.75;10539270;28;20039;-82
2023/03/14 06:11:10;;;;;;;0.00;0.00;;;;;;;8.91;100.00;98137.53;10519404;28;20067;-80
2023/03/14 06:16:13;;;;;;;1.38;0.28;;;;;;;8.89;100.00;98122.16;10501858;28;20074;-80
2023/03/14 06:21:15;;;;;;;0.00;0.00;;;;;;;9.09;100.00;98117.63;10528940;28;20044;-80
2023/03/14 06:26:20;;;;;;;0.00;0.00;;;;;;;9.22;100.00;98111.47;10528191;28;20040;-80
2023/03/14 06:31:22;;;;;;;0.00;0.00;;;;;;;9.53;100.00;98114.44;10552643;28;20445;-80
2023/03/14 06:36:30;;;;;;;0.10;0.10;;;;;;;9.54;100.00;98112.72;10546480;28;20066;-79
2023/03/14 06:41:32;;;;;;;0.00;0.00;;;;;;;9.65;100.00;98087.72;10527694;28;20050;-79
2023/03/14 06:46:35;;;;;;;0.05;0.05;;;;;;;9.50;100.00;98088.78;10536867;28;20043;-79
2023/03/14 06:51:37;;;;;;;0.10;0.10;;;;;;;9.68;100.00;98081.69;10524867;28;20050;-82
2023/03/14 06:56:43;;;;;;;1.90;0.77;;;;;;;9.57;100.00;98073.28;10522463;28;20044;-79
2023/03/14 07:01:45;;;;;;;0.00;0.00;;;;;;;9.54;100.00;98045.91;10524609;28;20044;-81
2023/03/14 07:06:47;;;;;;;0.00;0.00;;;;;;;9.74;100.00;98037.88;10534683;28;20384;-79
2023/03/14 07:11:49;;;;;;;0.17;0.15;;;;;;;9.81;100.00;98026.59;10542759;28;20471;-79
2023/03/14 07:16:52;;;;;;;0.10;0.10;;;;;;;9.89;100.00;98025.63;10554403;28;20127;-79
2023/03/14 07:21:54;;;;;;;0.00;0.00;;;;;;;9.79;100.00;98012.06;10527922;28;20078;-79
2023/03/14 07:26:59;;;;;;;0.10;0.10;;;;;;;9.78;100.00;98000.97;10528311;28;20475;-82
2023/03/14 07:32:01;;;;;;;0.10;0.00;;;;;;;9.93;100.00;97993.84;10557925;28;20063;-82
2023/03/14 07:37:04;;;;;;;0.00;0.00;;;;;;;9.99;100.00;97986.00;10540415;28;20036;-83
2023/03/14 07:42:07;;;;;;;2.28;1.15;;;;;;;9.93;100.00;97993.84;10526789;28;20138;-82
2023/03/14 07:47:12;;;;;;;0.00;0.00;;;;;;;9.82;100.00;97976.88;10540667;28;20686;-82
2023/03/14 07:52:13;;;;;;;1.25;0.90;;;;;;;9.83;100.00;97978.56;10530707;28;20044;-83
2023/03/14 07:57:16;;;;;;;0.68;0.63;;;;;;;9.95;100.00;97984.34;10530077;28;20040;-82
2023/03/14 08:02:21;;;;;;;0.20;0.10;;;;;;;9.95;100.00;97985.22;10523565;28;20089;-83
2023/03/14 08:07:23;;;;;;;0.00;0.00;;;;;;;9.83;100.00;97983.72;10541616;28;20055;-82
2023/03/14 08:12:25;;;;;;;0.00;0.00;;;;;;;9.74;100.00;98013.88;10518634;28;20460;-81
2023/03/14 08:17:27;;;;;;;0.00;0.00;;;;;;;9.32;100.00;98068.50;10528774;28;20101;-82
2023/03/14 08:22:29;;;;;;;0.00;0.00;;;;;;;8.25;100.00;98139.91;10536164;28;20040;-82
2023/03/14 08:27:31;;;;;;;0.00;0.00;;;;;;;7.85;100.00;98165.88;10518557;28;20044;-82
2023/03/14 08:32:32;;;;;;;0.00;0.00;;;;;;;7.68;100.00;98188.19;10534338;28;20572;-83
2023/03/14 08:37:35;;;;;;;0.00;0.00;;;;;;;7.62;100.00;98207.88;10508555;28;20071;-83
2023/03/14 08:42:38;;;;;;;0.00;0.00;;;;;;;7.48;100.00;98217.34;10519799;28;20048;-82
2023/03/14 08:47:40;;;;;;;0.00;0.00;;;;;;;6.89;100.00;98247.41;10566571;27;20036;-83
2023/03/14 08:52:42;;;;;;;0.00;0.00;;;;;;;7.24;100.00;98249.88;10513539;28;20043;-83
2023/03/14 08:57:44;;;;;;;0.00;0.00;;;;;;;7.53;100.00;98261.72;10558725;28;20090;-83
2023/03/14 09:02:45;;;;;;;0.00;0.00;;;;;;;7.48;100.00;98289.09;10527123;28;20101;-83
2023/03/14 09:07:47;;;;;;;0.00;0.00;;;;;;;7.43;100.00;98312.16;10527474;28;20040;-84
2023/03/14 09:12:49;;;;;;;0.00;0.00;;;;;;;7.04;100.00;98347.22;10556175;28;20434;-84
2023/03/14 09:17:51;;;;;;;0.00;0.00;;;;;;;6.35;100.00;98425.63;10539717;28;20043;-84
2023/03/14 09:22:53;;;;;;;0.00;0.00;;;;;;;6.30;100.00;98460.53;10502309;28;20044;-84
2023/03/14 09:27:54;;;;;;;0.00;0.00;;;;;;;5.97;100.00;98505.53;10531484;28;20044;-85
2023/03/14 09:32:57;;;;;;;0.00;0.00;;;;;;;5.91;100.00;98541.28;10517480;28;20040;-85
2023/03/14 09:37:59;;;;;;;0.00;0.00;;;;;;;5.72;100.00;98594.78;10509099;28;20054;-84
2023/03/14 09:43:01;;;;;;;0.00;0.00;;;;;;;5.67;100.00;98634.78;10552035;28;20052;-83
2023/03/14 09:48:04;;;;;;;0.00;0.00;;;;;;;5.69;100.00;98680.78;10533149;28;20039;-85
2023/03/14 09:53:13;;;;;;;0.00;0.00;;;;;;;5.85;100.00;98697.09;10513846;28;20140;-85
2023/03/14 09:58:22;;;;;;;0.00;0.00;;;;;;;6.00;100.00;98730.50;10563673;28;20036;-85
2023/03/14 10:03:35;;;;;;;0.00;0.00;;;;;;;6.42;100.00;98774.34;10531820;28;20544;-84
2023/03/14 10:08:42;;;;;;;0.00;0.00;;;;;;;6.32;100.00;98816.88;10544791;28;20498;-85
2023/03/14 10:13:49;;;;;;;0.00;0.00;;;;;;;6.43;100.00;98877.53;10535200;28;20063;-85
2023/03/14 10:18:51;;;;;;;0.10;0.10;;;;;;;6.20;100.00;98921.63;10540553;28;20486;-84
2023/03/14 10:23:52;;;;;;;0.00;0.00;;;;;;;6.21;100.00;98969.38;10526099;28;20048;-84
2023/03/14 10:29:03;;;;;;;0.00;0.00;;;;;;;6.35;100.00;99021.53;10564330;28;20040;-85
2023/03/14 10:34:06;;;;;;;0.00;0.00;;;;;;;7.01;100.00;99058.13;10502354;28;20130;-85
2023/03/14 10:39:17;;;;;;;0.00;0.00;;;;;;;6.73;100.00;99114.13;10543620;28;20054;-85
2023/03/14 10:44:22;;;;;;;0.00;0.00;;;;;;;6.00;100.00;99180.41;10530605;28;20044;-86
2023/03/14 10:49:35;;;;;;;0.00;0.00;;;;;;;6.19;100.00;99201.19;10512029;28;20464;-85
2023/03/14 10:54:36;;;;;;;0.30;0.13;;;;;;;6.57;100.00;99211.16;10526569;28;20048;-85
2023/03/14 10:59:41;;;;;;;0.45;0.28;;;;;;;6.77;100.00;99244.72;10531229;28;20139;-85
2023/03/14 11:05:12;;;;;;;0.00;0.00;;;;;;;6.94;100.00;99310.63;10576064;28;20271;-84
2023/03/14 11:10:26;;;;;;;;;;;;;;;6.84;100.00;99350.59;10561794;28;20047;-85
2023/03/14 11:16:05;;;;;;;0.00;0.00;;;;;;;6.59;100.00;99380.06;10531230;28;20286;-85
2023/03/14 11:21:15;;;;;;;0.00;0.00;;;;;;;5.96;100.00;99362.66;10552294;28;20044;-84
2023/03/14 11:26:37;;;;;;;0.00;0.00;;;;;;;5.49;100.00;99371.09;10536231;28;20036;-84
2023/03/14 11:31:44;;;;;;;0.00;0.00;;;;;;;5.88;100.00;99354.84;10514586;28;20062;-83
2023/03/14 11:36:59;;;;;;;0.00;0.00;;;;;;;6.16;100.00;99391.22;10532475;28;20044;-85
2023/03/14 11:42:02;;;;;;;0.00;0.00;;;;;;;6.27;100.00;99424.69;10525992;28;20047;-84
2023/03/14 11:47:19;;;;;;;0.00;0.00;;;;;;;7.02;100.00;99452.47;10538768;28;20451;-85
2023/03/14 11:52:30;;;;;;;0.25;0.25;;;;;;;7.07;100.00;99496.06;10532213;28;20047;-84
2023/03/14 11:57:32;;;;;;;0.00;0.00;;;;;;;6.78;100.00;99519.44;10533295;28;20093;-84
2023/03/14 12:03:04;;;;;;;0.00;0.00;;;;;;;7.19;100.00;99534.69;10516811;28;20132;-85
2023/03/14 12:08:07;;;;;;;0.08;0.08;;;;;;;7.41;100.00;99576.09;10529973;27;20130;-85
2023/03/14 12:13:11;;;;;;;0.10;0.10;;;;;;;7.82;100.00;99631.47;10532213;28;20035;-84
2023/03/14 12:18:25;;;;;;;0.00;0.00;;;;;;;8.67;100.00;99666.13;10576250;28;20090;-85
2023/03/14 12:23:34;;;;;;;1.30;0.88;;;;;;;8.53;100.00;99719.81;10530354;28;20501;-83
2023/03/14 12:28:35;;;;;;;0.10;0.10;;;;;;;8.66;100.00;99764.53;10527632;28;20047;-84
2023/03/14 12:33:37;;;;;;;0.00;0.00;;;;;;;8.41;100.00;99795.75;10525354;28;20046;-83
2023/03/14 12:38:54;;;;;;;1.45;0.28;;;;;;;8.99;100.00;99830.94;10519223;28;20399;-83
2023/03/14 12:43:56;;;;;;;0.10;0.10;;;;;;;8.23;100.00;99839.06;10500263;28;20052;-84
2023/03/14 12:49:01;;;;;;;0.00;0.00;;;;;;;8.41;100.00;99851.38;10519618;28;20101;-83
2023/03/14 12:54:17;;;;;;;0.10;0.10;;;;;;;7.29;100.00;99907.25;10510835;28;20048;-83
2023/03/14 12:59:31;;;;;;;0.10;0.10;;;;;;;8.37;100.00;99906.91;10531498;28;20067;-83
2023/03/14 13:05:00;;;;;;;0.00;0.00;;;;;;;8.22;100.00;99940.84;10522755;28;20048;-83
2023/03/14 13:10:08;;;;;;;0.35;0.25;;;;;;;9.13;100.00;99954.47;10531393;28;20051;-79
2023/03/14 13:15:29;;;;;;;0.00;0.00;;;;;;;8.89;100.00;99980.63;10514463;28;20068;-79
2023/03/14 13:20:38;;;;;;;0.00;0.00;;;;;;;8.61;100.00;99999.78;10543986;27;20118;-79
2023/03/14 13:25:41;;;;;;;9.05;0.25;;;;;;;7.85;100.00;100006.78;10537028;28;20044;-79
2023/03/14 13:30:53;;;;;;;0.20;0.17;;;;;;;7.45;100.00;100013.50;10528808;28;20047;-78
2023/03/14 13:35:58;;;;;;;0.00;0.00;;;;;;;7.15;100.00;100045.22;10543457;28;20043;-79
2023/03/14 13:41:04;;;;;;;0.10;0.10;;;;;;;7.26;100.00;100076.25;10535151;28;20410;-78
2023/03/14 13:46:15;;;;;;;0.00;0.00;;;;;;;8.05;100.00;100091.00;10519272;28;20040;-83
2023/03/14 13:51:18;;;;;;;0.00;0.00;;;;;;;7.69;100.00;100115.78;10534287;28;20051;-81
2023/03/14 13:56:22;;;;;;;0.05;0.05;;;;;;;8.45;100.00;100127.78;10528701;28;20120;-82
2023/03/14 14:01:29;;;;;;;0.00;0.00;;;;;;;8.07;100.00;100141.50;10557653;28;20055;-83
2023/03/14 14:06:39;;;;;;;0.00;0.00;;;;;;;8.08;100.00;100150.03;10577742;28;20044;-83
2023/03/14 14:11:55;;;;;;;0.00;0.00;;;;;;;8.23;100.00;100181.19;10563011;28;20049;-81
2023/03/14 14:17:19;;;;;;;0.00;0.00;;;;;;;8.17;100.00;100193.03;10533839;28;20495;-82
2023/03/14 14:22:21;;;;;;;0.15;0.15;;;;;;;7.98;100.00;100217.38;10507624;28;20507;-83
2023/03/14 14:27:37;;;;;;;4.30;0.10;;;;;;;7.98;100.00;100249.00;10516956;28;20043;-84
2023/03/14 14:32:40;;;;;;;0.43;0.10;;;;;;;7.29;100.00;100284.75;10535454;28;20097;-83
2023/03/14 14:37:44;;;;;;;0.00;0.00;;;;;;;7.20;100.00;100292.16;10555970;28;20491;-83
2023/03/14 14:42:46;;;;;;;0.00;0.00;;;;;;;7.53;100.00;100301.66;10566645;28;20047;-84
2023/03/14 14:47:52;;;;;;;0.45;0.45;;;;;;;7.97;100.00;100319.09;10533463;28;20410;-83
2023/03/14 14:53:00;;;;;;;0.45;0.05;;;;;;;7.28;100.00;100318.00;10509383;28;20554;-85
2023/03/14 14:58:22;;;;;;;0.00;0.00;;;;;;;7.54;100.00;100334.16;10548723;28;20108;-83
2023/03/14 15:03:27;;;;;;;0.00;0.00;;;;;;;7.15;96.08;100350.06;10537398;28;20044;-83
2023/03/14 15:08:30;;;;;;;0.00;0.00;;;;;;;7.40;97.74;100361.94;10530547;28;20048;-81
2023/03/14 15:13:31;;;;;;;0.00;0.00;;;;;;;7.69;95.75;100363.63;10540592;28;20051;-82
2023/03/14 15:18:33;;;;;;;0.00;0.00;;;;;;;6.97;100.00;100387.09;10538610;28;20104;-80
2023/03/14 15:23:35;;;;;;;0.28;0.08;;;;;;;6.73;100.00;100391.41;10537580;28;20388;-81
2023/03/14 15:28:36;;;;;;;0.00;0.00;;;;;;;6.66;100.00;100411.66;10519314;28;20556;-81
2023/03/14 15:33:38;;;;;;;0.00;0.00;;;;;;;6.49;100.00;100418.78;10544509;28;20076;-81
2023/03/14 15:38:40;;;;;;;0.10;0.10;;;;;;;6.52;100.00;100438.47;10542493;28;20036;-81
2023/03/14 15:43:41;;;;;;;0.20;0.10;;;;;;;6.39;100.00;100451.66;10526889;28;20098;-81
2023/03/14 15:48:47;;;;;;;0.70;0.52;;;;;;;6.22;100.00;100462.16;10518544;28;20122;-82
2023/03/14 15:53:49;;;;;;;0.00;0.00;;;;;;;6.38;100.00;100473.84;10544193;28;20078;-81
2023/03/14 15:58:53;;;;;;;0.00;0.00;;;;;;;6.11;100.00;100481.38;10541958;28;20055;-81
2023/03/14 16:03:55;;;;;;;0.00;0.00;;;;;;;6.08;100.00;100501.72;10543830;28;20055;-81
2023/03/14 16:08:58;;;;;;;0.00;0.00;;;;;;;5.89;100.00;100521.44;10540134;28;20047;-81
2023/03/14 16:13:59;;;;;;;0.00;0.00;;;;;;;5.97;100.00;100514.06;10535096;28;20040;-82
2023/03/14 16:19:01;;;;;;;0.00;0.00;;;;;;;5.86;100.00;100536.66;10557416;28;20549;-81
2023/03/14 16:24:05;;;;;;;0.00;0.00;;;;;;;6.07;100.00;100554.56;10542844;28;20048;-82
2023/03/14 16:29:07;;;;;;;0.00;0.00;;;;;;;5.94;100.00;100555.72;10536070;28;20040;-82
2023/03/14 16:34:09;;;;;;;0.00;0.00;;;;;;;5.96;100.00;100576.22;10537728;28;20495;-82
2023/03/14 16:39:11;;;;;;;0.00;0.00;;;;;;;5.68;100.00;100588.81;10537189;28;20089;-81
2023/03/14 16:44:13;;;;;;;0.00;0.00;;;;;;;5.61;100.00;100591.94;10532531;28;20097;-80
2023/03/14 16:49:17;;;;;;;0.00;0.00;;;;;;;5.48;100.00;100599.88;10531397;28;20054;-81
2023/03/14 16:54:19;;;;;;;0.00;0.00;;;;;;;5.44;100.00;100609.09;10532174;28;20063;-82
2023/03/14 16:59:24;;;;;;;0.00;0.00;;;;;;;5.49;100.00;100619.50;10530937;28;20044;-82
2023/03/14 17:04:26;;;;;;;1.65;0.75;;;;;;;5.17;100.00;100621.59;10527829;28;20051;-82
2023/03/14 17:09:30;;;;;;;0.00;0.00;;;;;;;4.95;100.00;100641.06;10566495;27;20048;-82
2023/03/14 17:14:31;;;;;;;0.10;0.10;;;;;;;4.97;100.00;100652.22;10511401;28;20055;-82
2023/03/14 17:19:33;;;;;;;0.00;0.00;;;;;;;4.90;100.00;100660.41;10529424;28;20047;-82
2023/03/14 17:24:36;;;;;;;0.00;0.00;;;;;;;4.84;100.00;100683.09;10532648;28;20055;-82
2023/03/14 17:29:37;;;;;;;0.00;0.00;;;;;;;4.96;100.00;100698.97;10529902;28;20048;-81
2023/03/14 17:34:39;;;;;;;0.10;0.10;;;;;;;4.86;100.00;100704.47;10525281;28;20077;-81
2023/03/14 17:39:40;;;;;;;0.00;0.00;;;;;;;4.75;100.00;100704.84;10528919;28;20050;-81
2023/03/14 17:44:42;;;;;;;0.00;0.00;;;;;;;4.80;100.00;100711.84;10524387;28;20036;-81
2023/03/14 17:49:45;;;;;;;0.00;0.00;;;;;;;4.71;100.00;100725.94;10529590;28;20415;-81
2023/03/14 17:54:47;;;;;;;0.00;0.00;;;;;;;4.65;100.00;100730.75;10543574;28;20054;-80
2023/03/14 17:59:48;;;;;;;0.00;0.00;;;;;;;4.60;100.00;100737.31;10550861;28;20040;-81
2023/03/14 18:04:51;;;;;;;0.00;0.00;;;;;;;4.49;100.00;100736.78;10560738;28;20047;-82
2023/03/14 18:09:52;;;;;;;0.00;0.00;;;;;;;4.37;100.00;100744.72;10537271;28;20039;-82
2023/03/14 18:14:54;;;;;;;0.25;0.25;;;;;;;4.27;100.00;100750.19;10536170;28;20473;-82
2023/03/14 18:19:56;;;;;;;0.00;0.00;;;;;;;4.10;100.00;100760.44;10535727;28;20092;-82
2023/03/14 18:24:58;;;;;;;0.43;0.20;;;;;;;3.90;100.00;100761.13;10565422;28;20510;-82
2023/03/14 18:29:59;;;;;;;0.00;0.00;;;;;;;3.41;100.00;100760.31;10556326;28;20036;-82
2023/03/14 18:35:01;;;;;;;0.00;0.00;;;;;;;3.73;100.00;100768.78;10540957;28;20146;-82
2023/03/14 18:40:05;;;;;;;0.15;0.05;;;;;;;3.53;100.00;100769.41;10519218;28;20071;-82
2023/03/14 18:45:07;;;;;;;0.00;0.00;;;;;;;3.46;100.00;100784.34;10530004;28;20036;-80
2023/03/14 18:50:10;;;;;;;0.32;0.32;;;;;;;3.27;100.00;100790.16;10571767;27;20557;-81
2023/03/14 18:55:13;;;;;;;0.00;0.00;;;;;;;3.31;100.00;100803.94;10527355;28;20040;-81
2023/03/14 19:00:15;;;;;;;0.00;0.00;;;;;;;3.30;100.00;100808.13;10536438;28;20041;-80
2023/03/14 19:05:16;;;;;;;0.00;0.00;;;;;;;3.27;100.00;100817.28;10530714;28;20035;-81
2023/03/14 19:10:18;;;;;;;0.00;0.00;;;;;;;3.41;100.00;100812.94;10527588;28;20097;-81
2023/03/14 19:15:22;;;;;;;0.00;0.00;;;;;;;3.35;100.00;100816.03;10564635;28;20028;-80
2023/03/14 19:20:24;;;;;;;0.25;0.25;;;;;;;3.17;100.00;100816.78;10548597;28;20044;-81
2023/03/14 19:25:26;;;;;;;0.32;0.32;;;;;;;2.88;100.00;100811.75;10545434;28;20052;-80
2023/03/14 19:30:28;;;;;;;0.00;0.00;;;;;;;3.14;100.00;100801.34;10514990;28;20052;-82
2023/03/14 19:35:30;;;;;;;0.03;0.03;;;;;;;3.44;100.00;100801.25;10529403;28;20035;-82
2023/03/14 19:40:32;;;;;;;0.00;0.00;;;;;;;3.46;100.00;100808.97;10549359;28;20407;-81
2023/03/14 19:45:36;;;;;;;0.00;0.00;;;;;;;3.49;100.00;100825.28;10525420;28;20109;-82
2023/03/14 19:50:38;;;;;;;0.00;0.00;;;;;;;3.00;100.00;100817.53;10539522;28;20426;-81
2023/03/14 19:55:45;;;;;;;0.00;0.00;;;;;;;2.61;100.00;100811.97;10541980;28;20055;-81
2023/03/14 20:00:50;;;;;;;0.00;0.00;;;;;;;2.68;100.00;100814.06;10533398;28;20051;-77
2023/03/14 20:05:52;;;;;;;0.00;0.00;;;;;;;2.66;100.00;100815.63;10517901;28;20669;-78
2023/03/14 20:10:54;;;;;;;0.00;0.00;;;;;;;2.37;100.00;100813.22;10535342;28;20040;-79
2023/03/14 20:15:56;;;;;;;0.10;0.10;;;;;;;2.49;100.00;100810.50;10539389;28;20606;-79
2023/03/14 20:20:59;;;;;;;0.10;0.10;;;;;;;2.43;100.00;100809.25;10568358;28;20042;-79
2023/03/14 20:26:03;;;;;;;0.30;0.28;;;;;;;2.49;100.00;100815.59;10567426;28;20058;-78
2023/03/14 20:31:06;;;;;;;0.00;0.00;;;;;;;2.46;100.00;100830.66;10548591;28;20047;-78
2023/03/14 20:36:08;;;;;;;4.07;1.35;;;;;;;2.47;100.00;100831.50;10524893;28;20510;-79
2023/03/14 20:41:10;;;;;;;1.02;0.28;;;;;;;2.40;100.00;100832.84;10530870;28;20044;-79
2023/03/14 20:46:15;;;;;;;0.03;0.03;;;;;;;2.18;100.00;100828.16;10549909;28;20414;-79
2023/03/14 20:51:17;;;;;;;0.00;0.00;;;;;;;1.97;100.00;100835.41;10555519;28;20062;-79
2023/03/14 20:56:20;;;;;;;0.08;0.08;;;;;;;1.85;100.00;100836.44;10538832;28;20036;-79
2023/03/14 21:01:24;;;;;;;0.00;0.00;;;;;;;1.70;100.00;100830.44;10527601;28;20047;-79
2023/03/14 21:06:44;;;;;;;0.00;0.00;;;;;;;1.88;100.00;100835.72;10555903;28;20028;-79
2023/03/14 21:11:46;;;;;;;0.05;0.05;;;;;;;2.02;100.00;100834.88;10526749;28;20048;-79
2023/03/14 21:16:49;;;;;;;0.17;0.17;;;;;;;2.16;100.00;100832.31;10535790;28;20071;-78
2023/03/14 21:21:50;;;;;;;0.10;0.10;;;;;;;2.38;100.00;100845.44;10532109;28;20039;-77
2023/03/14 21:26:52;;;;;;;0.00;0.00;;;;;;;2.51;100.00;100852.13;10524166;28;20096;-78
2023/03/14 21:31:54;;;;;;;0.00;0.00;;;;;;;2.53;100.00;100850.56;10511692;28;20039;-77
2023/03/14 21:36:56;;;;;;;0.10;0.10;;;;;;;2.77;100.00;100850.22;10519282;28;20432;-77
2023/03/14 21:41:58;;;;;;;0.00;0.00;;;;;;;2.97;100.00;100850.44;10544969;28;20027;-78
2023/03/14 21:47:00;;;;;;;0.10;0.10;;;;;;;2.82;100.00;100827.56;10524182;28;20135;-77
2023/03/14 21:52:10;;;;;;;33.47;0.80;;;;;;;2.84;100.00;100829.41;10519912;28;20048;-77
2023/03/14 21:57:13;;;;;;;1.90;0.63;;;;;;;2.77;100.00;100828.97;10520440;28;20548;-78
2023/03/14 22:02:17;;;;;;;0.00;0.00;;;;;;;2.78;100.00;100831.63;10524582;28;20048;-77
2023/03/14 22:07:20;;;;;;;0.00;0.00;;;;;;;2.73;100.00;100838.09;10551725;28;20042;-78
2023/03/14 22:12:22;;;;;;;0.00;0.00;;;;;;;2.66;100.00;100826.72;10537623;28;20508;-78
2023/03/14 22:17:23;;;;;;;0.10;0.10;;;;;;;2.67;100.00;100837.75;10539753;28;20504;-78
2023/03/14 22:22:25;;;;;;;0.08;0.08;;;;;;;2.52;100.00;100833.53;10537822;28;20044;-78
2023/03/14 22:27:26;;;;;;;0.00;0.00;;;;;;;2.69;100.00;100828.53;10539218;28;20131;-78
2023/03/14 22:32:28;;;;;;;3.30;0.80;;;;;;;2.75;100.00;100815.31;10527727;28;20050;-78
2023/03/14 22:37:29;;;;;;;0.05;0.03;;;;;;;2.71;100.00;100791.34;10537430;28;20032;-80
2023/03/14 22:42:34;;;;;;;0.30;0.30;;;;;;;2.70;100.00;100762.47;10501304;28;20052;-78
2023/03/14 22:47:35;;;;;;;0.00;0.00;;;;;;;2.75;100.00;100744.06;10519185;28;20521;-78
2023/03/14 22:52:37;;;;;;;0.00;0.00;;;;;;;2.77;100.00;100724.66;10512735;28;20155;-77
2023/03/14 22:57:40;;;;;;;0.10;0.10;;;;;;;2.66;100.00;100719.88;10533222;28;20067;-78
2023/03/14 23:02:41;;;;;;;0.00;0.00;;;;;;;2.58;100.00;100694.78;10538561;28;20495;-77
2023/03/14 23:07:43;;;;;;;0.00;0.00;;;;;;;2.69;100.00;100678.47;10561064;28;20054;-77
2023/03/14 23:12:45;;;;;;;0.43;0.43;;;;;;;2.56;100.00;100670.97;10537100;28;20052;-77
2023/03/14 23:17:47;;;;;;;0.03;0.03;;;;;;;2.56;100.00;100671.81;10559124;28;20040;-76
2023/03/14 23:22:49;;;;;;;0.00;0.00;;;;;;;2.70;100.00;100705.66;10546818;28;20403;-78
2023/03/14 23:27:52;;;;;;;0.00;0.00;;;;;;;2.72;100.00;100709.13;10523658;28;20407;-77
2023/03/14 23:32:54;;;;;;;0.00;0.00;;;;;;;2.31;100.00;100700.09;10532679;28;20552;-80